Time;durP1;ratioP1;P1;durP2;ratioP2;P2;SDS_P1;SDS_P2;PMS_P1;PMS_P2;Temp;Humidity;BMP_temperature;BMP_pressure;BME280_temperature;BME280_humidity;BME280_pressure;Samples;Min_cycle;Max_cycle;Signal;HPM_P1;HPM_P2
2021/12/01 00:02:15;;;;;;;36.35;14.30;;;8.90;99.90;;;;;;4991567;28;20491;-85
2021/12/01 00:04:41;;;;;;;34.90;14.23;;;8.90;99.90;;;;;;4975943;28;20058;-85
2021/12/01 00:07:08;;;;;;;38.72;14.68;;;8.90;99.90;;;;;;4976350;28;20116;-85
2021/12/01 00:09:34;;;;;;;38.38;15.75;;;8.90;99.90;;;;;;4975724;28;20054;-85
2021/12/01 00:11:59;;;;;;;32.58;13.63;;;8.90;99.90;;;;;;4991989;28;20046;-86
2021/12/01 00:14:26;;;;;;;34.55;14.32;;;8.90;99.90;;;;;;4992267;28;20057;-86
2021/12/01 00:16:52;;;;;;;37.47;15.15;;;8.90;99.90;;;;;;4989727;28;20047;-85
2021/12/01 00:19:17;;;;;;;38.60;16.02;;;9.00;99.90;;;;;;4997854;28;20544;-83
2021/12/01 00:21:43;;;;;;;34.40;15.52;;;9.00;99.90;;;;;;5004120;28;20046;-83
2021/12/01 00:24:09;;;;;;;37.53;14.80;;;9.00;99.90;;;;;;4998717;28;20503;-83
2021/12/01 00:26:35;;;;;;;40.30;16.48;;;9.00;99.90;;;;;;4990985;28;20136;-83
2021/12/01 00:29:00;;;;;;;35.80;15.88;;;9.00;99.90;;;;;;4986422;28;20049;-83
2021/12/01 00:31:26;;;;;;;36.20;17.67;;;9.00;99.90;;;;;;4993357;28;20049;-83
2021/12/01 00:33:52;;;;;;;34.70;15.95;;;9.10;99.90;;;;;;4978517;28;20057;-83
2021/12/01 00:36:18;;;;;;;39.30;17.67;;;9.00;99.90;;;;;;4964748;28;20057;-83
2021/12/01 00:38:44;;;;;;;36.00;17.45;;;9.10;99.90;;;;;;4975300;28;20038;-83
2021/12/01 00:41:11;;;;;;;38.88;17.90;;;9.10;99.90;;;;;;4967803;28;20042;-83
2021/12/01 00:43:41;;;;;;;36.83;19.13;;;9.10;99.90;;;;;;4975299;28;20133;-83
2021/12/01 00:46:20;;;;;;;42.60;19.95;;;9.10;99.90;;;;;;4973749;28;20046;-83
2021/12/01 00:48:46;;;;;;;42.47;18.95;;;9.10;99.90;;;;;;5001301;28;20384;-84
2021/12/01 00:51:12;;;;;;;38.33;18.05;;;9.10;99.90;;;;;;5009891;28;20156;-84
2021/12/01 00:53:38;;;;;;;35.63;19.05;;;9.10;99.90;;;;;;4991435;28;20043;-84
2021/12/01 00:56:05;;;;;;;39.63;19.20;;;9.20;99.90;;;;;;4975098;28;20129;-83
2021/12/01 00:58:30;;;;;;;38.60;19.45;;;9.20;99.90;;;;;;4991632;28;20042;-84
2021/12/01 01:00:58;;;;;;;37.63;19.73;;;9.20;99.90;;;;;;4989592;28;20178;-83
2021/12/01 01:03:24;;;;;;;41.05;20.55;;;9.20;99.90;;;;;;4968192;28;20065;-83
2021/12/01 01:05:49;;;;;;;37.80;19.48;;;9.20;99.90;;;;;;4994021;28;20042;-83
2021/12/01 01:08:17;;;;;;;34.80;19.83;;;9.30;99.90;;;;;;4994066;28;20072;-84
2021/12/01 01:18:44;;;;;;;40.90;18.40;;;9.30;99.90;;;;;;4977724;28;20058;-83
2021/12/01 01:21:12;;;;;;;39.00;19.33;;;9.30;99.90;;;;;;4994650;28;20094;-83
2021/12/01 01:23:38;;;;;;;39.63;18.08;;;9.20;99.90;;;;;;5010355;28;20065;-83
2021/12/01 01:26:08;;;;;;;44.65;18.85;;;9.20;99.90;;;;;;4993734;28;20061;-82
2021/12/01 01:28:36;;;;;;;47.28;19.70;;;9.20;99.90;;;;;;5010409;28;20050;-83
2021/12/01 01:31:02;;;;;;;47.08;18.15;;;9.20;99.90;;;;;;4996783;28;20072;-82
2021/12/01 01:33:28;;;;;;;42.88;16.73;;;9.20;99.90;;;;;;4994703;28;20045;-83
2021/12/01 01:35:54;;;;;;;37.80;16.23;;;9.20;99.90;;;;;;4990353;28;20061;-82
2021/12/01 01:38:20;;;;;;;43.13;17.95;;;9.20;99.90;;;;;;4994006;28;20081;-82
2021/12/01 01:40:45;;;;;;;33.10;15.55;;;9.10;99.90;;;;;;5009528;28;20065;-83
2021/12/01 01:43:12;;;;;;;34.28;14.02;;;9.10;99.90;;;;;;4978071;28;20054;-83
2021/12/01 01:45:38;;;;;;;37.13;16.13;;;9.30;99.90;;;;;;4975427;28;20482;-83
2021/12/01 01:48:09;;;;;;;37.70;15.30;;;9.20;99.90;;;;;;4978752;28;20383;-84
2021/12/01 01:50:39;;;;;;;38.67;15.85;;;9.30;99.90;;;;;;4990549;28;20085;-83
2021/12/01 01:53:20;;;;;;;32.95;13.75;;;9.20;99.90;;;;;;4990369;28;20034;-84
2021/12/01 01:55:48;;;;;;;30.15;14.30;;;9.30;99.90;;;;;;4973672;28;20058;-83
2021/12/01 01:58:14;;;;;;;33.22;14.32;;;9.30;99.90;;;;;;4990814;28;20042;-83
2021/12/01 02:00:51;;;;;;;28.30;13.77;;;9.30;99.90;;;;;;4987891;28;20058;-84
2021/12/01 02:03:18;;;;;;;31.13;14.93;;;9.30;99.90;;;;;;4974123;28;20137;-84
2021/12/01 02:05:44;;;;;;;33.65;14.25;;;9.30;99.90;;;;;;4980090;28;20046;-83
2021/12/01 02:08:20;;;;;;;26.70;12.63;;;9.40;99.90;;;;;;5000861;28;20046;-83
2021/12/01 02:10:51;;;;;;;33.42;12.98;;;9.40;99.90;;;;;;5009079;28;20050;-83
2021/12/01 02:13:18;;;;;;;28.67;12.55;;;9.40;99.90;;;;;;4985856;28;20046;-83
2021/12/01 02:15:45;;;;;;;29.27;12.68;;;9.40;99.90;;;;;;4955524;28;20427;-83
2021/12/01 02:18:11;;;;;;;32.00;12.68;;;9.40;99.90;;;;;;4974023;28;20136;-84
2021/12/01 02:20:38;;;;;;;29.40;12.32;;;9.40;99.90;;;;;;4990319;28;20054;-84
2021/12/01 02:23:04;;;;;;;26.95;11.63;;;9.40;99.90;;;;;;5001447;28;20041;-84
2021/12/01 02:25:30;;;;;;;25.77;10.98;;;9.40;99.90;;;;;;4992912;28;20410;-83
2021/12/01 02:27:56;;;;;;;26.98;10.35;;;9.40;99.90;;;;;;4997231;28;20046;-84
2021/12/01 02:30:23;;;;;;;26.95;10.25;;;9.40;99.90;;;;;;4956453;28;20058;-83
2021/12/01 02:32:50;;;;;;;24.80;10.60;;;9.40;99.90;;;;;;4996148;28;20050;-83
2021/12/01 02:35:16;;;;;;;27.00;10.48;;;9.40;99.90;;;;;;4993130;28;20143;-83
2021/12/01 02:37:42;;;;;;;25.77;9.80;;;9.40;99.90;;;;;;4993193;28;20085;-82
2021/12/01 02:40:08;;;;;;;26.65;9.90;;;9.40;99.90;;;;;;4991353;28;20062;-83
2021/12/01 02:42:34;;;;;;;24.05;9.40;;;9.40;99.90;;;;;;5007335;28;20046;-83
2021/12/01 02:45:00;;;;;;;21.42;8.60;;;9.40;99.90;;;;;;4989631;28;20046;-82
2021/12/01 02:47:27;;;;;;;21.27;8.45;;;9.50;99.90;;;;;;4972962;28;20140;-82
2021/12/01 02:49:54;;;;;;;20.67;7.90;;;9.40;99.90;;;;;;4973250;28;20050;-83
2021/12/01 02:52:22;;;;;;;18.33;7.25;;;9.50;99.90;;;;;;4958108;28;20077;-83
2021/12/01 02:54:48;;;;;;;20.13;8.00;;;9.40;99.90;;;;;;5004557;28;20566;-82
2021/12/01 02:57:14;;;;;;;16.77;6.78;;;9.40;99.90;;;;;;4992690;28;20046;-82
2021/12/01 02:59:40;;;;;;;;;;;9.50;99.90;;;;;;5009974;28;20497;-83
2021/12/01 03:02:07;;;;;;;15.25;6.57;;;9.50;99.90;;;;;;4990111;28;19929;-82
2021/12/01 03:04:35;;;;;;;14.45;6.60;;;9.50;99.90;;;;;;4992474;28;20384;-81
2021/12/01 03:07:02;;;;;;;14.60;5.95;;;9.50;99.90;;;;;;4995612;28;20042;-82
2021/12/01 03:09:28;;;;;;;11.90;5.65;;;9.50;99.90;;;;;;4988202;28;20461;-82
2021/12/01 03:11:54;;;;;;;12.63;5.50;;;9.50;99.90;;;;;;4991987;28;20157;-81
2021/12/01 03:14:20;;;;;;;10.85;4.75;;;9.60;99.90;;;;;;5009465;28;20049;-81
2021/12/01 03:16:48;;;;;;;7.28;3.97;;;9.50;99.90;;;;;;4999500;28;20043;-82
2021/12/01 03:19:14;;;;;;;6.82;3.65;;;9.60;99.90;;;;;;4989409;28;20504;-82
2021/12/01 03:21:41;;;;;;;7.53;3.85;;;10.00;99.90;;;;;;4995777;28;20081;-82
2021/12/01 03:24:08;;;;;;;9.57;4.13;;;9.70;99.90;;;;;;4993038;28;20108;-82
2021/12/01 03:26:34;;;;;;;9.55;4.22;;;9.60;99.90;;;;;;4956762;28;20074;-81
2021/12/01 03:29:01;;;;;;;8.65;4.30;;;9.70;99.90;;;;;;4987204;28;20108;-83
2021/12/01 03:31:27;;;;;;;10.13;4.50;;;9.60;99.90;;;;;;4990624;28;20042;-82
2021/12/01 03:33:52;;;;;;;9.77;4.57;;;9.60;99.90;;;;;;4983649;28;20041;-82
2021/12/01 03:36:18;;;;;;;13.73;4.45;;;9.60;99.90;;;;;;4992595;28;20050;-83
2021/12/01 03:38:45;;;;;;;8.48;4.22;;;9.60;99.90;;;;;;4992778;28;20045;-82
2021/12/01 03:41:10;;;;;;;10.65;4.30;;;9.60;99.90;;;;;;4972439;28;20054;-83
2021/12/01 03:43:36;;;;;;;9.95;4.45;;;9.60;99.90;;;;;;4957521;28;20357;-84
2021/12/01 03:46:02;;;;;;;8.68;3.78;;;9.60;99.90;;;;;;4986841;28;20129;-84
2021/12/01 03:48:28;;;;;;;7.57;4.00;;;9.60;99.90;;;;;;4957399;28;20129;-85
2021/12/01 03:50:54;;;;;;;8.00;4.30;;;9.60;99.90;;;;;;4991920;28;20054;-84
2021/12/01 03:53:21;;;;;;;;;;;9.60;99.90;;;;;;4976556;28;20085;-84
2021/12/01 03:55:47;;;;;;;9.93;4.65;;;9.60;99.90;;;;;;5002030;28;19929;-84
2021/12/01 03:58:13;;;;;;;9.75;4.47;;;9.60;99.90;;;;;;5010656;28;20053;-84
2021/12/01 04:00:39;;;;;;;7.80;4.78;;;9.60;99.90;;;;;;4974804;28;20058;-84
2021/12/01 04:03:05;;;;;;;9.48;4.53;;;9.50;99.90;;;;;;4976015;28;20054;-84
2021/12/01 04:05:32;;;;;;;7.82;4.57;;;9.60;99.90;;;;;;5006478;28;20471;-83
2021/12/01 04:07:57;;;;;;;7.47;4.32;;;9.60;99.90;;;;;;5011809;28;20062;-83
2021/12/01 04:10:23;;;;;;;7.40;3.72;;;9.50;99.90;;;;;;4977423;28;20101;-82
2021/12/01 04:12:49;;;;;;;8.40;4.40;;;9.50;99.90;;;;;;5012159;28;20140;-84
2021/12/01 04:15:15;;;;;;;9.98;4.63;;;9.50;99.90;;;;;;4992548;28;20050;-83
2021/12/01 04:17:43;;;;;;;7.93;4.15;;;9.50;99.90;;;;;;4991794;28;20480;-83
2021/12/01 04:20:12;;;;;;;7.15;4.00;;;9.50;99.90;;;;;;4959815;28;20085;-82
2021/12/01 04:22:38;;;;;;;9.15;4.05;;;9.50;99.90;;;;;;4992352;28;20133;-82
2021/12/01 04:25:04;;;;;;;7.72;4.10;;;9.50;99.90;;;;;;4991611;28;20170;-83
2021/12/01 04:27:31;;;;;;;6.28;3.50;;;9.40;99.90;;;;;;4992307;28;20133;-83
2021/12/01 04:29:57;;;;;;;;;;;9.40;99.90;;;;;;4991258;28;20105;-83
2021/12/01 04:32:22;;;;;;;7.45;3.78;;;9.30;99.90;;;;;;4991370;28;19921;-82
2021/12/01 04:34:48;;;;;;;6.40;3.33;;;9.30;99.90;;;;;;4989837;28;20057;-83
2021/12/01 04:37:14;;;;;;;7.57;3.60;;;9.30;99.90;;;;;;4973867;28;20046;-83
2021/12/01 04:39:40;;;;;;;8.07;3.40;;;9.30;99.90;;;;;;4976037;28;20050;-84
2021/12/01 04:42:07;;;;;;;5.97;3.20;;;9.30;99.90;;;;;;4991186;28;20399;-83
2021/12/01 04:44:35;;;;;;;5.80;2.83;;;9.20;99.90;;;;;;5003393;28;20089;-85
2021/12/01 04:47:03;;;;;;;4.80;2.75;;;9.20;99.90;;;;;;5008694;28;20403;-84
2021/12/01 04:49:31;;;;;;;6.28;2.90;;;9.20;99.90;;;;;;4981390;28;20492;-84
2021/12/01 04:51:59;;;;;;;5.63;3.00;;;9.20;99.90;;;;;;4993732;28;20045;-85
2021/12/01 04:54:26;;;;;;;4.72;2.55;;;9.20;99.90;;;;;;4995421;28;20122;-84
2021/12/01 04:56:52;;;;;;;5.93;2.90;;;9.20;99.90;;;;;;5011009;28;20050;-84
2021/12/01 04:59:20;;;;;;;4.50;2.35;;;9.20;99.90;;;;;;5009354;28;20499;-83
2021/12/01 05:01:47;;;;;;;6.10;2.63;;;9.10;99.90;;;;;;4979722;28;20456;-84
2021/12/01 05:04:12;;;;;;;4.60;2.80;;;9.10;99.90;;;;;;5000482;28;20081;-82
2021/12/01 05:06:39;;;;;;;5.95;2.58;;;9.10;99.90;;;;;;4978400;28;20081;-81
2021/12/01 05:09:06;;;;;;;6.13;2.67;;;9.10;99.90;;;;;;5005763;28;20487;-82
2021/12/01 05:11:32;;;;;;;4.85;2.65;;;9.00;99.90;;;;;;4991058;28;20530;-82
2021/12/01 05:13:58;;;;;;;5.32;3.20;;;9.00;99.90;;;;;;4974748;28;20050;-82
2021/12/01 05:16:23;;;;;;;5.50;2.80;;;9.00;99.90;;;;;;4973134;28;20145;-82
2021/12/01 05:18:50;;;;;;;4.95;2.42;;;8.90;99.90;;;;;;4975188;28;20074;-82
2021/12/01 05:21:15;;;;;;;;;;;8.90;99.90;;;;;;4991067;28;20078;-83
2021/12/01 05:23:41;;;;;;;4.05;2.53;;;8.90;99.90;;;;;;4984612;28;19960;-82
2021/12/01 05:26:09;;;;;;;6.55;3.55;;;8.80;99.90;;;;;;4974112;28;20488;-82
2021/12/01 05:28:35;;;;;;;5.68;2.85;;;8.90;99.90;;;;;;4986276;28;20053;-82
2021/12/01 05:31:01;;;;;;;7.65;3.30;;;8.90;99.90;;;;;;5008099;28;20041;-83
2021/12/01 05:33:27;;;;;;;5.93;2.88;;;8.80;99.90;;;;;;4993999;28;20042;-82
2021/12/01 05:35:52;;;;;;;5.90;2.90;;;8.80;99.90;;;;;;4974781;28;20050;-83
2021/12/01 05:38:18;;;;;;;7.22;3.25;;;8.70;99.90;;;;;;4990152;28;20077;-83
2021/12/01 05:40:47;;;;;;;5.80;2.95;;;8.80;99.90;;;;;;4997978;28;20129;-82
2021/12/01 05:43:14;;;;;;;6.00;3.22;;;8.70;99.90;;;;;;5009273;28;20064;-83
2021/12/01 05:45:39;;;;;;;5.57;3.00;;;8.70;99.90;;;;;;4990213;28;20045;-82
2021/12/01 05:48:05;;;;;;;5.57;3.42;;;8.70;99.90;;;;;;5009907;28;20052;-82
2021/12/01 05:50:31;;;;;;;5.57;3.38;;;8.70;99.90;;;;;;4991561;28;20061;-82
2021/12/01 05:52:57;;;;;;;5.72;3.20;;;8.70;99.90;;;;;;4990692;28;20046;-82
2021/12/01 05:55:23;;;;;;;6.45;3.22;;;8.60;99.90;;;;;;4974013;28;20499;-81
2021/12/01 05:57:48;;;;;;;5.88;3.17;;;8.60;99.90;;;;;;4958416;28;20038;-81
2021/12/01 06:00:15;;;;;;;6.88;3.70;;;8.60;99.90;;;;;;4976415;28;20060;-81
2021/12/01 06:02:47;;;;;;;5.97;3.20;;;8.60;99.90;;;;;;4992076;28;20144;-81
2021/12/01 06:05:13;;;;;;;6.85;2.97;;;8.60;99.90;;;;;;5008838;28;20057;-82
2021/12/01 06:07:39;;;;;;;6.63;3.25;;;8.50;99.90;;;;;;4975804;28;20050;-81
2021/12/01 06:10:05;;;;;;;6.82;3.50;;;8.50;99.90;;;;;;4986181;28;20108;-81
2021/12/01 06:12:32;;;;;;;6.72;3.38;;;8.50;99.90;;;;;;4993282;28;20054;-82
2021/12/01 06:14:58;;;;;;;5.80;3.05;;;8.50;99.90;;;;;;4992230;28;20046;-82
2021/12/01 06:17:24;;;;;;;6.32;3.40;;;8.50;99.90;;;;;;4991657;28;20566;-82
2021/12/01 06:19:50;;;;;;;6.43;3.30;;;8.40;99.90;;;;;;5042863;28;20514;-82
2021/12/01 06:22:15;;;;;;;6.82;3.60;;;8.40;99.90;;;;;;4992670;28;20046;-82
2021/12/01 06:24:41;;;;;;;7.60;3.72;;;8.40;99.90;;;;;;4993418;28;20046;-82
2021/12/01 06:27:07;;;;;;;6.50;3.40;;;8.50;99.90;;;;;;4976398;28;20041;-82
2021/12/01 06:29:33;;;;;;;6.22;3.67;;;8.40;99.90;;;;;;4992875;28;20050;-81
2021/12/01 06:31:59;;;;;;;7.15;3.85;;;8.40;99.90;;;;;;4989373;28;20054;-82
2021/12/01 06:34:25;;;;;;;6.88;3.60;;;8.40;99.90;;;;;;4993991;28;20053;-82
2021/12/01 06:36:50;;;;;;;6.85;3.67;;;8.40;99.90;;;;;;5009254;28;20487;-81
2021/12/01 06:39:16;;;;;;;7.15;3.60;;;8.40;99.90;;;;;;4982569;28;20100;-82
2021/12/01 06:41:43;;;;;;;6.28;3.40;;;8.30;99.90;;;;;;4973435;28;20046;-81
2021/12/01 06:44:09;;;;;;;6.70;3.50;;;8.40;99.90;;;;;;4973622;28;20081;-82
2021/12/01 06:46:35;;;;;;;6.30;3.65;;;8.40;99.90;;;;;;4987790;28;20108;-82
2021/12/01 06:49:01;;;;;;;6.20;3.53;;;8.30;99.90;;;;;;4979116;28;20046;-83
2021/12/01 06:51:27;;;;;;;5.82;3.38;;;8.30;99.90;;;;;;4996143;28;20096;-81
2021/12/01 06:53:52;;;;;;;7.15;3.63;;;8.30;99.90;;;;;;5000835;28;20047;-81
2021/12/01 06:56:19;;;;;;;5.80;3.53;;;8.30;99.90;;;;;;4988456;28;20132;-81
2021/12/01 06:58:45;;;;;;;;;;;8.30;99.90;;;;;;4989988;28;20046;-82
2021/12/01 07:01:11;;;;;;;7.18;3.60;;;8.30;99.90;;;;;;4988321;28;20286;-81
2021/12/01 07:03:36;;;;;;;5.10;3.38;;;8.30;99.90;;;;;;5009740;28;20057;-81
2021/12/01 07:06:02;;;;;;;8.80;3.60;;;8.40;99.90;;;;;;4992873;28;20501;-83
2021/12/01 07:08:28;;;;;;;6.60;3.63;;;8.30;99.90;;;;;;4992822;28;20060;-82
2021/12/01 07:10:54;;;;;;;5.10;3.08;;;8.30;99.90;;;;;;5001655;28;20050;-82
2021/12/01 07:13:20;;;;;;;6.78;3.97;;;8.30;99.90;;;;;;5003726;28;20050;-82
2021/12/01 07:15:46;;;;;;;6.88;4.05;;;8.30;99.90;;;;;;4990804;28;20050;-82
2021/12/01 07:18:12;;;;;;;6.30;3.50;;;8.20;99.90;;;;;;4988727;28;20057;-82
2021/12/01 07:20:38;;;;;;;5.43;3.33;;;8.20;99.90;;;;;;4973296;28;20054;-81
2021/12/01 07:23:04;;;;;;;5.55;3.17;;;8.30;99.90;;;;;;4989687;28;20129;-80
2021/12/01 07:25:33;;;;;;;6.80;3.92;;;8.20;99.90;;;;;;4988777;28;20411;-81
2021/12/01 07:27:59;;;;;;;6.28;3.47;;;8.20;99.90;;;;;;4992018;28;20502;-81
2021/12/01 07:30:25;;;;;;;8.45;3.55;;;8.20;99.90;;;;;;4958250;28;20117;-81
2021/12/01 07:32:51;;;;;;;6.10;3.13;;;8.20;99.90;;;;;;4976567;28;20046;-81
2021/12/01 07:35:17;;;;;;;8.30;3.33;;;8.20;99.90;;;;;;4998979;28;20073;-80
2021/12/01 07:37:44;;;;;;;5.70;3.22;;;8.20;99.90;;;;;;4999157;28;20050;-81
2021/12/01 07:40:10;;;;;;;;;;;8.20;99.90;;;;;;4998567;28;20134;-81
2021/12/01 07:42:36;;;;;;;5.15;2.75;;;8.20;99.90;;;;;;4976860;28;19925;-81
2021/12/01 07:45:04;;;;;;;5.28;2.83;;;8.20;99.90;;;;;;4991989;28;20409;-81
2021/12/01 07:47:30;;;;;;;3.88;2.60;;;8.20;99.90;;;;;;5006457;28;20060;-81
2021/12/01 07:49:55;;;;;;;6.75;2.92;;;8.20;99.90;;;;;;5012283;28;20128;-81
2021/12/01 07:52:21;;;;;;;5.32;3.00;;;8.30;99.90;;;;;;4985545;28;20050;-81
2021/12/01 07:54:47;;;;;;;5.35;2.80;;;8.20;99.90;;;;;;5017150;28;20050;-82
2021/12/01 07:57:15;;;;;;;4.03;2.53;;;8.20;99.90;;;;;;4991939;28;20050;-80
2021/12/01 07:59:40;;;;;;;4.75;2.70;;;8.20;99.90;;;;;;4992372;28;20482;-81
2021/12/01 08:02:07;;;;;;;4.63;2.60;;;8.40;99.90;;;;;;4971519;28;20089;-81
2021/12/01 08:04:33;;;;;;;5.57;2.65;;;8.20;99.90;;;;;;4964613;28;20134;-81
2021/12/01 08:07:00;;;;;;;3.88;2.25;;;8.20;99.90;;;;;;4976351;28;20046;-81
2021/12/01 08:09:26;;;;;;;3.53;2.28;;;8.20;99.90;;;;;;4975782;28;20042;-81
2021/12/01 08:11:55;;;;;;;;;;;8.30;99.90;;;;;;4976256;28;20784;-81
2021/12/01 08:14:22;;;;;;;3.97;2.33;;;8.30;99.90;;;;;;5000971;28;20012;-81
2021/12/01 08:16:48;;;;;;;4.60;2.70;;;8.30;99.90;;;;;;5009911;28;20133;-81
2021/12/01 08:19:14;;;;;;;5.88;2.58;;;8.30;99.90;;;;;;4995042;28;20046;-81
2021/12/01 08:21:40;;;;;;;4.60;2.78;;;8.30;99.90;;;;;;4995665;28;20104;-81
2021/12/01 08:24:07;;;;;;;6.13;2.92;;;8.30;99.90;;;;;;4995912;28;20042;-81
2021/12/01 08:26:33;;;;;;;5.47;2.78;;;8.30;99.90;;;;;;5010660;28;20104;-81
2021/12/01 08:28:59;;;;;;;4.00;2.50;;;8.40;99.90;;;;;;5012003;28;20057;-82
2021/12/01 08:31:24;;;;;;;5.85;2.60;;;8.30;99.90;;;;;;4993046;28;20053;-81
2021/12/01 08:33:51;;;;;;;6.82;3.00;;;8.40;99.90;;;;;;5005527;28;20039;-82
2021/12/01 08:36:17;;;;;;;4.50;2.35;;;8.50;99.90;;;;;;4992320;28;20454;-82
2021/12/01 08:38:43;;;;;;;4.57;2.47;;;8.50;99.90;;;;;;4972374;28;20140;-81
2021/12/01 08:41:10;;;;;;;4.95;2.80;;;8.50;99.90;;;;;;4994989;28;20068;-83
2021/12/01 08:43:35;;;;;;;;;;;8.50;99.90;;;;;;4987908;28;20046;-83
2021/12/01 08:46:06;;;;;;;4.85;2.60;;;8.50;99.90;;;;;;4973751;28;19928;-82
2021/12/01 08:48:31;;;;;;;4.80;2.58;;;8.60;99.90;;;;;;4975330;28;20089;-83
2021/12/01 08:51:01;;;;;;;8.18;3.03;;;8.60;99.90;;;;;;4959824;28;20050;-83
2021/12/01 08:53:31;;;;;;;7.75;2.90;;;8.60;99.90;;;;;;4975284;28;20099;-83
2021/12/01 08:55:58;;;;;;;7.93;3.50;;;8.60;99.90;;;;;;4976975;28;20046;-83
2021/12/01 08:58:24;;;;;;;6.00;3.10;;;8.60;99.90;;;;;;4999280;28;20073;-83
2021/12/01 09:00:50;;;;;;;7.70;3.58;;;8.60;99.90;;;;;;4989217;28;20492;-83
2021/12/01 09:03:18;;;;;;;6.10;3.67;;;8.60;99.90;;;;;;4990672;28;20054;-82
2021/12/01 09:05:45;;;;;;;5.47;3.17;;;8.70;99.90;;;;;;4991077;28;20058;-81
2021/12/01 09:08:13;;;;;;;7.35;3.20;;;8.70;99.90;;;;;;4991233;28;20101;-80
2021/12/01 09:10:39;;;;;;;7.40;3.55;;;8.70;99.90;;;;;;4989547;28;20069;-80
2021/12/01 09:13:06;;;;;;;9.23;3.80;;;8.70;99.90;;;;;;4978666;28;20093;-80
2021/12/01 09:15:32;;;;;;;6.35;3.28;;;8.60;99.90;;;;;;4997942;28;20050;-80
2021/12/01 09:17:58;;;;;;;;;;;8.60;99.90;;;;;;4997973;28;20049;-81
2021/12/01 09:20:25;;;;;;;5.75;2.80;;;8.80;99.90;;;;;;5000531;28;19936;-82
2021/12/01 09:22:51;;;;;;;6.63;2.70;;;8.60;99.90;;;;;;4990038;28;20132;-83
2021/12/01 09:25:17;;;;;;;6.90;2.80;;;8.50;99.90;;;;;;5004974;28;20126;-85
2021/12/01 09:27:44;;;;;;;6.28;2.47;;;8.50;99.90;;;;;;4992353;28;20045;-85
2021/12/01 09:30:12;;;;;;;5.57;2.50;;;8.40;99.90;;;;;;5008754;28;20254;-84
2021/12/01 09:32:38;;;;;;;7.07;2.90;;;8.50;99.90;;;;;;5008555;28;20116;-84
2021/12/01 09:35:06;;;;;;;4.20;2.30;;;8.50;99.90;;;;;;5006925;28;20049;-84
2021/12/01 09:37:32;;;;;;;10.10;2.55;;;8.50;99.90;;;;;;4984905;28;20046;-84
2021/12/01 09:39:58;;;;;;;8.32;2.20;;;8.60;99.90;;;;;;5009824;28;20049;-87
2021/12/01 09:42:25;;;;;;;9.77;2.13;;;8.50;99.90;;;;;;4993261;28;20052;-86
2021/12/01 09:44:51;;;;;;;;;;;8.50;99.90;;;;;;5010491;28;20053;-84
2021/12/01 09:47:19;;;;;;;9.60;1.73;;;8.60;99.90;;;;;;4998109;28;19922;-86
2021/12/01 09:49:46;;;;;;;9.63;2.03;;;8.60;99.90;;;;;;4975346;28;20293;-86
2021/12/01 09:52:12;;;;;;;5.75;1.75;;;8.60;99.90;;;;;;4975210;28;20069;-86
2021/12/01 09:54:39;;;;;;;;;;;8.70;99.90;;;;;;4959177;28;20050;-87
2021/12/01 09:57:12;;;;;;;5.38;1.70;;;8.70;99.90;;;;;;4975354;28;19922;-87
2021/12/01 09:59:38;;;;;;;8.82;1.58;;;8.60;99.90;;;;;;4972428;28;20124;-86
2021/12/01 10:02:04;;;;;;;4.95;1.38;;;8.60;99.90;;;;;;4963732;28;20062;-87
2021/12/01 10:04:29;;;;;;;6.93;1.70;;;8.60;99.90;;;;;;5005154;28;20431;-86
2021/12/01 10:07:30;;;;;;;11.90;1.77;;;8.60;99.90;;;;;;4980405;28;20049;-86
2021/12/01 10:10:08;;;;;;;7.72;2.10;;;8.60;99.90;;;;;;5001491;28;20049;-85
2021/12/01 10:12:49;;;;;;;6.70;1.50;;;8.50;99.90;;;;;;4993894;28;20061;-85
2021/12/01 10:15:31;;;;;;;6.55;1.60;;;8.50;99.90;;;;;;5009611;28;20049;-85
2021/12/01 10:18:16;;;;;;;8.68;1.67;;;8.40;99.90;;;;;;4988073;28;20380;-84
2021/12/01 10:20:55;;;;;;;6.80;1.67;;;7.90;99.90;;;;;;4993798;28;20127;-83
2021/12/01 10:23:24;;;;;;;5.15;1.25;;;8.30;99.90;;;;;;4993953;28;20296;-85
2021/12/01 10:25:50;;;;;;;5.45;1.30;;;8.40;99.90;;;;;;4961533;28;20042;-85
2021/12/01 10:28:55;;;;;;;7.10;1.38;;;8.40;99.90;;;;;;4980386;28;20063;-84
2021/12/01 10:31:52;;;;;;;7.82;1.48;;;8.50;99.90;;;;;;4991289;28;20161;-83
2021/12/01 10:53:04;;;;;;;5.82;1.35;;;8.60;99.90;;;;;;4997565;28;20069;-84
2021/12/01 10:56:23;;;;;;;8.60;1.33;;;8.60;99.90;;;;;;4973755;28;20080;-84
2021/12/01 10:59:14;;;;;;;9.10;1.98;;;8.60;99.90;;;;;;4961947;28;20130;-86
2021/12/01 11:01:44;;;;;;;10.73;1.67;;;8.60;99.90;;;;;;4981853;28;20161;-85
2021/12/01 11:04:48;;;;;;;9.70;1.40;;;8.60;99.90;;;;;;4992184;28;20053;-85
2021/12/01 11:07:27;;;;;;;8.82;1.52;;;8.60;99.90;;;;;;4976321;28;20617;-86
2021/12/01 11:10:09;;;;;;;5.45;1.20;;;8.60;99.90;;;;;;4990400;28;20164;-85
2021/12/01 11:12:38;;;;;;;8.18;1.35;;;8.60;99.90;;;;;;4966363;28;20082;-84
2021/12/01 11:15:19;;;;;;;6.35;1.42;;;8.80;99.90;;;;;;4970748;28;20046;-86
2021/12/01 11:17:45;;;;;;;8.48;1.73;;;8.80;99.90;;;;;;4961338;28;20050;-84
2021/12/01 11:20:11;;;;;;;;;;;8.80;99.90;;;;;;4975211;28;20525;-85
2021/12/01 11:22:37;;;;;;;7.65;1.58;;;8.90;99.90;;;;;;4978214;28;19925;-85
2021/12/01 11:25:20;;;;;;;10.32;1.60;;;8.90;99.90;;;;;;4978588;28;20057;-85
2021/12/01 11:27:46;;;;;;;12.07;2.60;;;8.90;99.90;;;;;;4958662;28;20451;-88
2021/12/01 11:30:12;;;;;;;6.00;1.58;;;8.90;99.90;;;;;;4969162;28;20046;-86
2021/12/01 11:32:39;;;;;;;12.77;2.33;;;8.90;99.90;;;;;;4964596;28;20053;-87
2021/12/01 11:35:05;;;;;;;9.85;1.77;;;9.00;99.90;;;;;;4988095;28;20150;-84
2021/12/01 11:37:30;;;;;;;13.50;1.75;;;9.00;99.90;;;;;;4981133;28;20137;-87
2021/12/01 11:39:58;;;;;;;7.85;1.85;;;9.00;99.90;;;;;;4978099;28;20053;-86
2021/12/01 11:42:24;;;;;;;10.18;2.42;;;9.00;99.90;;;;;;4991951;28;20129;-87
2021/12/01 11:44:54;;;;;;;9.02;1.58;;;9.00;99.90;;;;;;4991013;28;20112;-83
2021/12/01 11:47:21;;;;;;;10.32;2.40;;;9.00;99.90;;;;;;4979642;28;20050;-85
2021/12/01 11:49:50;;;;;;;9.48;1.90;;;9.00;99.90;;;;;;4995983;28;20084;-86
2021/12/01 11:52:21;;;;;;;9.15;2.05;;;9.00;99.90;;;;;;5001734;28;20505;-85
2021/12/01 11:54:46;;;;;;;16.23;2.10;;;9.00;99.90;;;;;;4996410;28;20088;-84
2021/12/01 11:57:12;;;;;;;11.95;2.20;;;9.00;99.90;;;;;;4995332;28;20049;-84
2021/12/01 11:59:44;;;;;;;10.10;2.58;;;9.00;99.90;;;;;;4975378;28;20126;-85
2021/12/01 12:02:16;;;;;;;11.90;2.38;;;9.00;99.90;;;;;;4990200;28;20058;-85
2021/12/01 12:04:47;;;;;;;18.05;2.53;;;9.00;99.90;;;;;;4992082;28;20054;-85
2021/12/01 12:07:26;;;;;;;15.50;2.25;;;9.00;99.90;;;;;;4987765;28;20061;-85
2021/12/01 12:10:18;;;;;;;10.35;2.45;;;9.00;99.90;;;;;;5010052;28;20073;-86
2021/12/01 12:13:04;;;;;;;16.95;2.40;;;9.00;99.90;;;;;;5007152;28;20228;-84
2021/12/01 12:15:38;;;;;;;8.87;2.13;;;8.90;99.90;;;;;;4984749;28;20049;-84
2021/12/01 12:18:09;;;;;;;8.60;2.00;;;8.90;99.90;;;;;;4992262;28;20360;-85
2021/12/01 12:23:33;;;;;;;16.88;2.30;;;8.90;99.90;;;;;;4983808;28;20132;-84
2021/12/01 12:25:59;;;;;;;12.57;2.47;;;8.80;99.90;;;;;;4988339;28;20056;-86
2021/12/01 12:28:26;;;;;;;12.15;2.03;;;8.80;99.90;;;;;;4982845;28;20037;-86
2021/12/01 12:30:54;;;;;;;18.02;2.40;;;8.70;99.90;;;;;;5008806;28;20148;-84
2021/12/01 12:33:45;;;;;;;16.08;2.50;;;8.60;99.90;;;;;;4988148;28;20089;-86
2021/12/01 12:36:10;;;;;;;8.23;1.88;;;8.60;99.90;;;;;;5008939;28;20053;-86
2021/12/01 12:38:38;;;;;;;10.95;1.88;;;8.60;99.90;;;;;;4959911;28;20484;-86
2021/12/01 12:41:11;;;;;;;15.05;2.20;;;8.60;99.90;;;;;;4993073;28;20533;-89
2021/12/01 12:43:42;;;;;;;9.55;2.15;;;8.40;99.90;;;;;;4994520;28;20144;-86
2021/12/01 12:46:16;;;;;;;12.73;2.80;;;8.30;99.90;;;;;;4996196;28;20076;-84
2021/12/01 12:48:48;;;;;;;16.95;2.63;;;8.20;99.90;;;;;;5000434;28;20105;-86
2021/12/01 12:51:25;;;;;;;11.60;2.15;;;8.20;99.90;;;;;;4995707;28;20140;-86
2021/12/01 12:54:01;;;;;;;;;;;8.20;99.90;;;;;;4989745;28;20806;-87
2021/12/01 12:56:30;;;;;;;15.80;2.60;;;8.20;99.90;;;;;;4993607;28;19925;-86
2021/12/01 12:59:41;;;;;;;11.73;2.40;;;8.20;99.90;;;;;;4999318;28;20046;-85
2021/12/01 13:02:10;;;;;;;14.43;2.42;;;8.10;99.90;;;;;;4985791;28;20209;-85
2021/12/01 13:04:52;;;;;;;12.43;2.80;;;8.10;99.90;;;;;;4993446;28;20100;-85
2021/12/01 13:07:43;;;;;;;15.98;3.10;;;8.10;99.90;;;;;;4982686;28;20486;-85
2021/12/01 13:10:29;;;;;;;17.30;2.80;;;8.20;99.90;;;;;;4987320;28;20065;-84
2021/12/01 13:12:58;;;;;;;18.23;2.30;;;8.20;99.90;;;;;;4998340;28;20080;-84
2021/12/01 13:15:25;;;;;;;18.88;2.40;;;8.20;99.90;;;;;;4982321;28;20054;-85
2021/12/01 13:17:57;;;;;;;14.50;2.60;;;8.30;99.90;;;;;;4990795;28;20282;-85
2021/12/01 13:20:32;;;;;;;13.82;2.55;;;8.30;99.90;;;;;;4990591;28;20069;-84
2021/12/01 13:23:20;;;;;;;12.73;2.97;;;8.40;99.90;;;;;;4998150;28;20042;-85
2021/12/01 13:25:57;;;;;;;13.10;2.47;;;8.50;99.90;;;;;;4983059;28;20064;-84
2021/12/01 13:28:51;;;;;;;10.80;2.28;;;8.60;99.90;;;;;;4995912;28;20213;-84
2021/12/01 13:31:22;;;;;;;12.27;1.92;;;8.60;99.90;;;;;;4992075;28;20128;-84
2021/12/01 13:33:59;;;;;;;12.52;2.40;;;8.60;99.90;;;;;;4986163;28;20049;-84